createdAt,value
2017-10-10T00:02:18.524Z,11.20
2017-10-10T00:04:46.542Z,11.20
2017-10-10T00:07:12.939Z,11.10
2017-10-10T00:09:42.169Z,11.10
2017-10-10T00:12:10.074Z,11.00
2017-10-10T00:14:36.728Z,10.90
2017-10-10T00:17:03.064Z,10.90
2017-10-10T00:19:29.772Z,10.80
2017-10-10T00:21:56.106Z,10.80
2017-10-10T00:24:22.440Z,10.80
2017-10-10T00:26:48.782Z,10.80
2017-10-10T00:29:15.106Z,10.90
2017-10-10T00:31:41.485Z,11.00
2017-10-10T00:34:08.153Z,10.90
2017-10-10T00:36:34.477Z,11.00
2017-10-10T00:39:00.821Z,11.00
2017-10-10T00:41:27.942Z,11.00
2017-10-10T00:43:54.268Z,11.00
2017-10-10T00:46:20.551Z,11.10
2017-10-10T00:48:47.168Z,11.10
2017-10-10T00:51:13.861Z,11.00
2017-10-10T00:53:40.178Z,11.00
2017-10-10T00:56:06.502Z,11.00
2017-10-10T00:58:33.523Z,11.00
2017-10-10T01:00:59.880Z,11.00
2017-10-10T01:03:26.595Z,11.00
2017-10-10T01:05:52.901Z,10.90
2017-10-10T01:08:19.181Z,10.80
2017-10-10T01:10:45.512Z,10.80
2017-10-10T01:13:11.910Z,10.80
2017-10-10T01:15:38.251Z,10.80
2017-10-10T01:18:04.621Z,10.90
2017-10-10T01:20:30.953Z,11.00
2017-10-10T01:22:57.357Z,10.90
2017-10-10T01:25:23.672Z,10.90
2017-10-10T01:27:50.056Z,10.90
2017-10-10T01:30:16.360Z,11.00
2017-10-10T01:32:42.706Z,10.90
2017-10-10T01:35:09.066Z,11.00
2017-10-10T01:37:35.399Z,10.90
2017-10-10T01:40:01.742Z,10.70
2017-10-10T01:42:28.092Z,10.60
2017-10-10T01:44:54.507Z,10.60
2017-10-10T01:47:20.787Z,10.30
2017-10-10T01:49:47.548Z,10.30
2017-10-10T01:52:13.924Z,10.30
2017-10-10T01:54:40.252Z,10.40
2017-10-10T01:57:07.481Z,10.40
2017-10-10T01:59:33.799Z,10.40
2017-10-10T02:02:00.520Z,10.40
2017-10-10T02:04:26.844Z,10.40
2017-10-10T02:06:53.236Z,10.40
2017-10-10T02:09:19.565Z,10.50
2017-10-10T02:11:46.269Z,10.60
2017-10-10T02:14:12.548Z,10.60
2017-10-10T02:16:39.252Z,10.60
2017-10-10T02:19:05.603Z,10.60
2017-10-10T02:21:32.303Z,10.80
2017-10-10T02:23:58.620Z,10.80
2017-10-10T02:26:24.893Z,10.80
2017-10-10T02:28:51.225Z,10.90
2017-10-10T02:31:17.516Z,11.00
2017-10-10T02:33:44.487Z,11.10
2017-10-10T02:36:10.780Z,11.00
2017-10-10T02:38:37.083Z,11.00
2017-10-10T02:41:03.435Z,10.90
2017-10-10T02:43:29.758Z,11.00
2017-10-10T02:45:56.073Z,11.00
2017-10-10T02:48:22.342Z,11.00
2017-10-10T02:50:48.677Z,11.10
2017-10-10T02:53:15.000Z,11.00
2017-10-10T02:55:41.314Z,11.00
2017-10-10T02:58:07.627Z,11.10
2017-10-10T03:00:34.315Z,11.00
2017-10-10T03:03:00.592Z,11.00
2017-10-10T03:05:27.300Z,11.00
2017-10-10T03:07:53.616Z,11.00
2017-10-10T03:10:19.936Z,11.00
2017-10-10T03:12:46.289Z,10.90
2017-10-10T03:15:12.614Z,10.90
2017-10-10T03:17:38.935Z,10.80
2017-10-10T03:20:05.638Z,10.80
2017-10-10T03:22:32.257Z,10.80
2017-10-10T03:24:58.576Z,10.70
2017-10-10T03:27:24.885Z,10.60
2017-10-10T03:29:51.554Z,10.60
2017-10-10T03:32:17.865Z,10.60
2017-10-10T03:34:44.584Z,10.60
2017-10-10T03:37:10.923Z,10.60
2017-10-10T03:39:37.237Z,10.50
2017-10-10T03:42:04.379Z,10.60
2017-10-10T03:44:30.739Z,10.70
2017-10-10T03:46:57.029Z,10.50
2017-10-10T03:49:23.335Z,10.40
2017-10-10T03:51:49.678Z,10.40
2017-10-10T03:54:16.335Z,10.50
2017-10-10T03:56:43.054Z,10.60
2017-10-10T03:59:09.353Z,10.60
2017-10-10T04:01:35.656Z,10.70
2017-10-10T04:04:02.326Z,10.60
2017-10-10T04:06:28.657Z,10.60
2017-10-10T04:08:55.149Z,10.60
2017-10-10T04:11:21.480Z,10.70
2017-10-10T04:13:47.792Z,10.70
2017-10-10T04:16:14.090Z,10.70
2017-10-10T04:18:40.417Z,10.80
2017-10-10T04:21:07.117Z,10.80
2017-10-10T04:23:33.459Z,10.80
2017-10-10T04:25:59.744Z,10.90
2017-10-10T04:28:26.041Z,10.90
2017-10-10T04:30:53.981Z,10.80
2017-10-10T04:33:20.312Z,10.80
2017-10-10T04:35:46.651Z,10.60
2017-10-10T04:38:13.043Z,10.70
2017-10-10T04:40:39.377Z,10.50
2017-10-10T04:43:05.661Z,10.40
2017-10-10T04:45:31.986Z,10.20
2017-10-10T04:47:58.291Z,10.20
2017-10-10T04:50:24.998Z,10.20
2017-10-10T04:52:51.289Z,10.20
2017-10-10T04:55:17.635Z,10.10
2017-10-10T04:57:43.982Z,10.10
2017-10-10T05:00:10.269Z,10.10
2017-10-10T05:02:36.541Z,10.00
2017-10-10T05:05:02.852Z,10.20
2017-10-10T05:07:29.542Z,10.40
2017-10-10T05:09:55.849Z,10.40
2017-10-10T05:12:22.137Z,10.30
2017-10-10T05:14:48.467Z,10.20
2017-10-10T05:17:14.838Z,10.20
2017-10-10T05:19:41.197Z,10.30
2017-10-10T05:22:07.500Z,10.40
2017-10-10T05:24:34.881Z,10.10
2017-10-10T05:27:01.566Z,10.20
2017-10-10T05:29:27.943Z,10.20
2017-10-10T05:31:54.246Z,10.10
2017-10-10T05:34:20.589Z,10.20
2017-10-10T05:36:46.909Z,10.20
2017-10-10T05:39:13.298Z,10.20
2017-10-10T05:41:40.008Z,10.20
2017-10-10T05:44:06.293Z,10.20
2017-10-10T05:46:32.987Z,10.30
2017-10-10T05:48:59.255Z,10.30
2017-10-10T05:51:25.579Z,10.40
2017-10-10T05:53:51.874Z,10.60
2017-10-10T05:56:18.503Z,10.60
2017-10-10T05:58:44.789Z,10.60
2017-10-10T06:01:11.079Z,10.70
2017-10-10T06:03:37.396Z,10.60
2017-10-10T06:06:04.083Z,10.40
2017-10-10T06:08:30.396Z,10.40
2017-10-10T06:10:56.700Z,10.30
2017-10-10T06:13:23.014Z,10.30
2017-10-10T06:15:49.365Z,10.40
2017-10-10T06:18:16.082Z,10.60
2017-10-10T06:20:42.407Z,10.40
2017-10-10T06:23:08.702Z,10.30
2017-10-10T06:25:35.086Z,10.40
2017-10-10T06:28:01.399Z,10.50
2017-10-10T06:30:27.735Z,10.70
2017-10-10T06:32:54.070Z,10.60
2017-10-10T06:35:20.404Z,10.60
2017-10-10T06:37:46.720Z,10.40
2017-10-10T06:40:13.380Z,10.30
2017-10-10T06:42:39.732Z,10.30
2017-10-10T06:45:06.038Z,10.40
2017-10-10T06:47:32.357Z,10.50
2017-10-10T06:49:59.070Z,10.50
2017-10-10T06:52:25.387Z,10.50
2017-10-10T06:54:52.972Z,10.70
2017-10-10T06:57:19.279Z,10.90
2017-10-10T06:59:45.587Z,11.00
2017-10-10T07:02:12.261Z,11.30
2017-10-10T07:04:39.219Z,11.20
2017-10-10T07:07:08.470Z,11.20
2017-10-10T07:09:34.836Z,11.00
2017-10-10T07:12:02.476Z,11.00
2017-10-10T07:14:31.877Z,11.00
2017-10-10T07:16:58.197Z,11.00
2017-10-10T07:19:24.512Z,10.80
2017-10-10T07:21:50.834Z,10.70
2017-10-10T07:24:17.129Z,10.60
2017-10-10T07:26:43.836Z,10.90
2017-10-10T07:29:10.123Z,10.90
2017-10-10T07:31:36.834Z,10.90
2017-10-10T07:34:03.273Z,10.90
2017-10-10T07:36:29.613Z,10.90
2017-10-10T07:38:55.937Z,11.00
2017-10-10T07:41:22.205Z,11.10
2017-10-10T07:43:48.526Z,11.10
2017-10-10T07:46:14.849Z,11.30
2017-10-10T07:48:41.163Z,11.30
2017-10-10T07:51:07.467Z,11.10
2017-10-10T07:53:34.170Z,11.10
2017-10-10T07:56:00.496Z,11.10
2017-10-10T07:58:26.817Z,11.20
2017-10-10T08:00:53.169Z,11.30
2017-10-10T08:03:19.505Z,11.20
2017-10-10T08:05:45.863Z,11.20
2017-10-10T08:08:12.187Z,11.50
2017-10-10T08:10:38.526Z,11.80
2017-10-10T08:13:04.822Z,11.80
2017-10-10T08:15:31.122Z,11.70
2017-10-10T08:17:57.457Z,11.80
2017-10-10T08:20:24.149Z,12.00
2017-10-10T08:22:50.522Z,12.10
2017-10-10T08:25:16.829Z,12.10
2017-10-10T08:27:43.492Z,12.10
2017-10-10T08:30:09.803Z,12.20
2017-10-10T08:32:36.125Z,12.20
2017-10-10T08:35:02.478Z,12.60
2017-10-10T08:37:28.848Z,12.60
2017-10-10T08:39:55.186Z,12.70
2017-10-10T08:42:21.497Z,13.00
2017-10-10T08:44:48.576Z,13.20
2017-10-10T08:47:15.786Z,13.30
2017-10-10T08:49:42.100Z,13.30
2017-10-10T08:52:08.820Z,13.20
2017-10-10T08:54:35.176Z,13.20
2017-10-10T08:57:01.888Z,13.20
2017-10-10T08:59:28.228Z,13.20
2017-10-10T09:01:54.570Z,13.40
2017-10-10T09:04:20.902Z,13.40
2017-10-10T09:06:47.204Z,13.50
2017-10-10T09:09:13.514Z,13.30
2017-10-10T09:11:40.196Z,12.80
2017-10-10T09:14:06.530Z,12.80
2017-10-10T09:16:32.831Z,12.80
2017-10-10T09:18:59.525Z,13.20
2017-10-10T09:21:25.834Z,13.30
2017-10-10T09:23:52.154Z,13.60
2017-10-10T09:26:18.435Z,13.90
2017-10-10T09:28:44.723Z,14.20
2017-10-10T09:31:11.413Z,14.40
2017-10-10T09:33:37.750Z,14.40
2017-10-10T09:36:04.055Z,14.30
2017-10-10T09:38:30.358Z,14.70
2017-10-10T09:40:57.126Z,14.10
2017-10-10T09:43:23.438Z,14.00
2017-10-10T09:45:50.133Z,14.10
2017-10-10T09:48:16.472Z,14.10
2017-10-10T09:50:42.804Z,14.20
2017-10-10T09:53:09.089Z,14.20
2017-10-10T09:55:35.778Z,14.90
2017-10-10T09:58:02.124Z,15.00
2017-10-10T10:00:28.436Z,15.50
2017-10-10T10:02:54.827Z,15.70
2017-10-10T10:05:22.504Z,15.70
2017-10-10T10:07:48.802Z,15.70
2017-10-10T10:10:15.158Z,16.30
2017-10-10T10:12:41.457Z,17.50
2017-10-10T10:15:08.763Z,18.80
2017-10-10T10:17:35.071Z,19.70
2017-10-10T10:20:01.429Z,20.00
2017-10-10T10:22:27.743Z,20.60
2017-10-10T10:24:54.121Z,21.00
2017-10-10T10:27:29.696Z,19.60
2017-10-10T10:29:56.440Z,18.90
2017-10-10T10:32:23.135Z,17.70
2017-10-10T10:34:49.504Z,17.70
2017-10-10T10:37:16.190Z,16.40
2017-10-10T10:39:42.483Z,16.40
2017-10-10T10:42:09.436Z,16.90
2017-10-10T10:44:36.130Z,16.90
2017-10-10T10:47:02.436Z,17.00
2017-10-10T10:49:30.227Z,17.00
2017-10-10T10:51:56.533Z,17.00
2017-10-10T10:54:23.259Z,17.10
2017-10-10T10:56:49.543Z,17.10
2017-10-10T10:59:16.847Z,17.20
2017-10-10T11:01:43.208Z,17.80
2017-10-10T11:04:09.963Z,18.70
2017-10-10T11:06:37.053Z,19.20
2017-10-10T11:09:03.420Z,19.20
2017-10-10T11:11:29.724Z,18.80
2017-10-10T11:13:56.051Z,18.30
2017-10-10T11:16:22.364Z,17.90
2017-10-10T11:18:48.637Z,17.80
2017-10-10T11:21:14.945Z,17.50
2017-10-10T11:23:41.262Z,17.20
2017-10-10T11:26:07.919Z,16.90
2017-10-10T11:28:34.249Z,16.90
2017-10-10T11:31:00.571Z,17.50
2017-10-10T11:33:27.301Z,17.10
2017-10-10T11:35:53.634Z,17.10
2017-10-10T11:38:20.138Z,17.00
2017-10-10T11:40:46.966Z,16.60
2017-10-10T11:43:13.572Z,16.20
2017-10-10T11:45:40.233Z,15.80
2017-10-10T11:48:06.976Z,15.80
2017-10-10T11:50:33.665Z,15.90
2017-10-10T11:53:02.307Z,15.90
2017-10-10T11:55:29.021Z,15.50
2017-10-10T11:57:55.313Z,15.50
2017-10-10T12:00:21.660Z,15.30
2017-10-10T12:02:47.973Z,15.30
2017-10-10T12:05:16.518Z,15.40
2017-10-10T12:07:43.698Z,15.50
2017-10-10T12:10:10.073Z,15.30
2017-10-10T12:12:36.412Z,15.30
2017-10-10T12:15:03.695Z,15.60
2017-10-10T12:17:31.565Z,15.50
2017-10-10T12:19:57.865Z,15.60
2017-10-10T12:22:24.210Z,15.60
2017-10-10T12:24:50.613Z,15.80
2017-10-10T12:27:17.289Z,15.90
2017-10-10T12:29:43.929Z,15.90
2017-10-10T12:32:10.262Z,15.70
2017-10-10T12:34:36.965Z,15.50
2017-10-10T12:37:03.309Z,15.50
2017-10-10T12:39:30.979Z,15.20
2017-10-10T12:41:57.699Z,14.90
2017-10-10T12:44:24.018Z,14.90
2017-10-10T12:46:50.356Z,14.70
2017-10-10T12:49:16.670Z,14.70
2017-10-10T12:51:43.032Z,14.80
2017-10-10T12:54:11.209Z,14.80
2017-10-10T12:56:37.511Z,14.70
2017-10-10T12:59:03.852Z,14.70
2017-10-10T13:01:30.244Z,15.00
2017-10-10T13:03:56.639Z,15.10
2017-10-10T13:06:24.625Z,15.30
2017-10-10T13:08:50.982Z,15.30
2017-10-10T13:11:17.926Z,15.20
2017-10-10T13:13:47.368Z,15.30
2017-10-10T13:16:13.724Z,15.40
2017-10-10T13:18:40.135Z,15.40
2017-10-10T13:21:06.509Z,15.50
2017-10-10T13:23:32.847Z,15.40
2017-10-10T13:25:59.190Z,15.30
2017-10-10T13:28:25.522Z,15.40
2017-10-10T13:30:51.924Z,15.50
2017-10-10T13:33:18.285Z,15.40
2017-10-10T13:35:45.293Z,15.50
2017-10-10T13:38:11.633Z,15.50
2017-10-10T13:40:37.981Z,15.60
2017-10-10T13:43:04.344Z,15.60
2017-10-10T13:45:31.021Z,15.80
2017-10-10T13:47:57.379Z,15.80
2017-10-10T13:50:23.723Z,15.60
2017-10-10T13:52:53.027Z,15.40
2017-10-10T13:55:19.350Z,15.60
2017-10-10T13:57:45.705Z,15.60
2017-10-10T14:00:12.036Z,15.60
2017-10-10T14:02:38.384Z,15.40
2017-10-10T14:05:04.736Z,15.40
2017-10-10T14:07:31.106Z,15.60
2017-10-10T14:09:57.476Z,15.60
2017-10-10T14:12:23.826Z,15.80
2017-10-10T14:14:50.447Z,15.80
2017-10-10T14:17:16.749Z,15.60
2017-10-10T14:19:43.420Z,16.20
2017-10-10T14:22:09.773Z,16.20
2017-10-10T14:37:31.508Z,17.10
2017-10-10T14:39:57.788Z,17.10
2017-10-10T14:42:24.088Z,17.10
2017-10-10T14:44:50.394Z,16.80
2017-10-10T14:47:16.668Z,16.40
2017-10-10T14:49:42.991Z,15.90
2017-10-10T14:52:09.286Z,15.70
2017-10-10T14:54:35.633Z,15.40
2017-10-10T14:57:01.935Z,15.10
2017-10-10T14:59:28.497Z,14.90
2017-10-10T15:01:54.833Z,15.10
2017-10-10T15:04:21.125Z,15.20
2017-10-10T15:06:47.475Z,15.30
2017-10-10T15:09:13.798Z,15.40
2017-10-10T15:11:40.135Z,15.30
2017-10-10T15:14:06.441Z,15.10
2017-10-10T15:16:32.759Z,14.90
2017-10-10T15:18:59.064Z,15.10
2017-10-10T15:21:25.782Z,15.30
2017-10-10T15:23:52.089Z,15.20
2017-10-10T15:26:18.408Z,15.10
2017-10-10T15:28:44.736Z,15.10
2017-10-10T15:31:11.022Z,15.00
2017-10-10T15:33:37.721Z,15.10
2017-10-10T15:36:04.023Z,15.10
2017-10-10T15:38:31.125Z,15.20
2017-10-10T15:40:57.465Z,15.40
2017-10-10T15:43:24.033Z,15.40
2017-10-10T15:45:50.371Z,15.40
2017-10-10T15:48:16.843Z,15.60
2017-10-10T15:50:43.176Z,15.40
2017-10-10T15:53:09.554Z,15.40
2017-10-10T15:55:36.217Z,15.40
2017-10-10T15:58:02.525Z,15.40
2017-10-10T16:00:28.867Z,15.50
2017-10-10T16:02:55.158Z,15.50
2017-10-10T16:05:21.454Z,15.60
2017-10-10T16:07:48.040Z,15.50
2017-10-10T16:10:14.714Z,15.50
2017-10-10T16:12:41.035Z,15.50
2017-10-10T16:15:07.853Z,15.40
2017-10-10T16:17:34.155Z,15.30
2017-10-10T16:20:00.446Z,15.50
2017-10-10T16:22:27.036Z,15.40
2017-10-10T16:24:53.726Z,15.00
2017-10-10T16:27:20.087Z,15.10
2017-10-10T16:29:46.452Z,15.10
2017-10-10T16:32:12.834Z,15.10
2017-10-10T16:34:39.204Z,15.10
2017-10-10T16:37:05.589Z,15.00
2017-10-10T16:39:31.955Z,15.10
2017-10-10T16:41:58.237Z,15.20
2017-10-10T16:44:24.524Z,15.40
2017-10-10T16:46:51.202Z,15.30
2017-10-10T16:49:17.492Z,15.30
2017-10-10T16:51:43.790Z,15.30
2017-10-10T16:54:10.145Z,15.30
2017-10-10T16:56:36.889Z,15.40
2017-10-10T16:59:03.528Z,15.40
2017-10-10T17:01:30.168Z,15.20
2017-10-10T17:03:56.847Z,15.10
2017-10-10T17:06:23.208Z,15.10
2017-10-10T17:08:49.582Z,15.00
2017-10-10T17:11:16.500Z,15.10
2017-10-10T17:13:42.818Z,15.10
2017-10-10T17:16:09.076Z,15.00
2017-10-10T17:18:35.398Z,14.90
2017-10-10T17:21:02.051Z,14.80
2017-10-10T17:23:29.021Z,14.70
2017-10-10T17:25:58.454Z,14.70
2017-10-10T17:28:24.789Z,14.80
2017-10-10T17:30:51.145Z,14.80
2017-10-10T17:33:17.458Z,14.80
2017-10-10T17:35:44.143Z,14.80
2017-10-10T17:38:10.428Z,14.80
2017-10-10T17:40:36.721Z,14.80
2017-10-10T17:43:03.021Z,14.70
2017-10-10T17:45:29.317Z,14.70
2017-10-10T17:47:55.628Z,14.70
2017-10-10T17:50:21.917Z,14.70
2017-10-10T17:52:49.315Z,14.70
2017-10-10T17:55:16.013Z,14.50
2017-10-10T17:57:42.363Z,14.50
2017-10-10T18:00:08.672Z,14.50
2017-10-10T18:02:35.011Z,14.50
2017-10-10T18:05:01.408Z,14.40
2017-10-10T18:07:27.829Z,14.40
2017-10-10T18:09:54.248Z,14.30
2017-10-10T18:12:20.744Z,14.20
2017-10-10T18:14:47.257Z,14.10
2017-10-10T18:17:13.584Z,14.20
2017-10-10T18:19:40.344Z,14.20
2017-10-10T18:22:06.674Z,14.20
2017-10-10T18:24:32.982Z,14.20
2017-10-10T18:26:59.312Z,14.20
2017-10-10T18:29:26.054Z,14.10
2017-10-10T18:31:52.790Z,14.00
2017-10-10T18:34:19.459Z,14.00
2017-10-10T18:36:45.789Z,14.00
2017-10-10T18:39:12.113Z,14.00
2017-10-10T18:41:38.451Z,14.00
2017-10-10T18:44:04.804Z,14.00
2017-10-10T18:46:31.166Z,14.00
2017-10-10T18:48:57.503Z,14.00
2017-10-10T18:51:23.877Z,14.00
2017-10-10T18:53:50.804Z,14.00
2017-10-10T18:56:17.499Z,13.90
2017-10-10T18:58:43.815Z,13.90
2017-10-10T19:01:10.152Z,13.80
2017-10-10T19:03:37.179Z,13.70
2017-10-10T19:06:04.463Z,13.60
2017-10-10T19:08:30.998Z,13.60
2017-10-10T19:10:57.392Z,13.50
2017-10-10T19:13:25.504Z,13.30
2017-10-10T19:15:52.626Z,13.30
2017-10-10T19:18:18.992Z,13.30
2017-10-10T19:20:45.363Z,13.40
2017-10-10T19:23:11.707Z,13.40
2017-10-10T19:25:38.079Z,13.50
2017-10-10T19:28:05.787Z,13.60
2017-10-10T19:30:32.936Z,13.50
2017-10-10T19:32:59.234Z,13.50
2017-10-10T19:35:25.624Z,13.40
2017-10-10T19:37:52.015Z,13.50
2017-10-10T19:40:19.347Z,13.60
2017-10-10T19:42:45.682Z,13.60
2017-10-10T19:45:12.008Z,13.50
2017-10-10T19:47:38.396Z,13.50
2017-10-10T19:50:04.761Z,13.50
2017-10-10T19:52:31.129Z,13.60
2017-10-10T19:54:57.886Z,13.70
2017-10-10T19:57:24.348Z,13.70
2017-10-10T19:59:50.718Z,13.60
2017-10-10T20:02:17.113Z,13.70
2017-10-10T20:04:43.492Z,13.80
2017-10-10T20:07:10.171Z,13.70
2017-10-10T20:09:38.349Z,13.70
2017-10-10T20:12:05.724Z,13.70
2017-10-10T20:14:32.076Z,13.60
2017-10-10T20:16:58.392Z,13.70
2017-10-10T20:19:24.710Z,13.70
2017-10-10T20:21:51.090Z,13.70
2017-10-10T20:24:17.446Z,13.60
2017-10-10T20:26:43.737Z,13.60
2017-10-10T20:29:10.008Z,13.80
2017-10-10T20:31:36.345Z,13.80
2017-10-10T20:34:02.647Z,13.80
2017-10-10T20:36:29.304Z,13.90
2017-10-10T20:38:55.624Z,13.80
2017-10-10T20:41:21.873Z,13.60
2017-10-10T20:43:48.189Z,13.60
2017-10-10T20:46:14.474Z,13.70
2017-10-10T20:48:41.144Z,13.70
2017-10-10T20:51:07.874Z,13.70
2017-10-10T20:53:34.468Z,13.70
2017-10-10T20:56:00.784Z,13.60
2017-10-10T20:58:27.067Z,13.80
2017-10-10T21:00:53.359Z,13.80
2017-10-10T21:03:19.668Z,13.80
2017-10-10T21:05:46.021Z,13.70
2017-10-10T21:08:12.298Z,13.80
2017-10-10T21:10:38.628Z,13.80
2017-10-10T21:13:04.896Z,13.90
2017-10-10T21:15:31.482Z,14.00
2017-10-10T21:17:57.772Z,14.00
2017-10-10T21:20:24.056Z,14.10
2017-10-10T21:22:50.372Z,14.30
2017-10-10T21:25:16.788Z,14.30
2017-10-10T21:27:43.093Z,14.30
2017-10-10T21:30:09.398Z,14.30
2017-10-10T21:32:37.518Z,14.20
2017-10-10T21:35:03.802Z,14.10
2017-10-10T21:37:30.123Z,14.10
2017-10-10T21:39:56.376Z,14.00
2017-10-10T21:42:22.703Z,13.90
2017-10-10T21:44:48.999Z,14.00
2017-10-10T21:47:15.269Z,14.00
2017-10-10T21:49:41.560Z,14.00
2017-10-10T21:52:07.867Z,13.80
2017-10-10T21:54:34.563Z,13.90
2017-10-10T21:57:00.847Z,13.90
2017-10-10T21:59:27.149Z,14.00
2017-10-10T22:01:53.834Z,14.00
2017-10-10T22:04:20.115Z,14.00
2017-10-10T22:06:46.401Z,14.10
2017-10-10T22:09:14.327Z,14.20
2017-10-10T22:11:40.624Z,14.10
2017-10-10T22:14:06.939Z,14.20
2017-10-10T22:16:33.218Z,14.10
2017-10-10T22:18:59.872Z,14.00
2017-10-10T22:21:26.145Z,14.00
2017-10-10T22:23:52.455Z,14.00
2017-10-10T22:26:18.739Z,14.00
2017-10-10T22:28:45.375Z,14.00
2017-10-10T22:31:12.039Z,13.90
2017-10-10T22:33:38.331Z,13.90
2017-10-10T22:36:04.639Z,13.90
2017-10-10T22:38:30.925Z,13.90
2017-10-10T22:40:57.206Z,13.90
2017-10-10T22:43:23.471Z,13.90
2017-10-10T22:45:49.759Z,13.80
2017-10-10T22:48:16.050Z,13.80
2017-10-10T22:50:42.324Z,14.00
2017-10-10T22:53:08.598Z,14.00
2017-10-10T22:55:34.852Z,14.10
2017-10-10T22:58:01.136Z,14.10
2017-10-10T23:00:27.796Z,14.30
2017-10-10T23:02:54.444Z,14.30
2017-10-10T23:05:20.703Z,14.10
2017-10-10T23:07:46.971Z,14.10
2017-10-10T23:10:13.263Z,14.00
2017-10-10T23:12:39.524Z,13.70
2017-10-10T23:15:06.167Z,13.70
2017-10-10T23:17:32.826Z,13.70
2017-10-10T23:19:59.130Z,13.70
2017-10-10T23:22:35.530Z,13.70
2017-10-10T23:25:01.844Z,13.70
2017-10-10T23:27:28.102Z,13.80
2017-10-10T23:29:54.675Z,13.80
2017-10-10T23:32:20.929Z,13.60
2017-10-10T23:34:47.179Z,13.60
2017-10-10T23:37:13.491Z,13.60
2017-10-10T23:39:39.827Z,13.60
2017-10-10T23:42:06.099Z,13.60
2017-10-10T23:44:32.368Z,13.80
2017-10-10T23:46:59.000Z,14.10
2017-10-10T23:49:25.677Z,14.00
2017-10-10T23:51:52.004Z,14.00
2017-10-10T23:54:18.255Z,13.90
2017-10-10T23:56:44.515Z,13.90
2017-10-10T23:59:10.801Z,13.90
